createdAt,value
2019-03-11T00:02:12.153Z,98291.59
2019-03-11T00:04:44.369Z,98284.51
2019-03-11T00:07:16.679Z,98297.98
2019-03-11T00:09:48.904Z,98308.09
2019-03-11T00:12:21.155Z,98307.28
2019-03-11T00:14:53.414Z,98311.68
2019-03-11T00:17:25.666Z,98306.69
2019-03-11T00:19:57.891Z,98303.48
2019-03-11T00:22:30.142Z,98310.80
2019-03-11T00:25:03.107Z,98314.19
2019-03-11T00:27:36.110Z,98312.81
2019-03-11T00:30:08.790Z,98313.95
2019-03-11T00:32:40.772Z,98323.58
2019-03-11T00:35:12.716Z,98329.34
2019-03-11T00:37:44.721Z,98333.52
2019-03-11T00:40:16.695Z,98327.16
2019-03-11T00:42:48.709Z,98325.98
2019-03-11T00:45:20.742Z,98328.35
2019-03-11T00:48:01.510Z,98322.13
2019-03-11T00:50:27.131Z,98323.03
2019-03-11T00:52:59.123Z,98316.70
2019-03-11T00:55:31.048Z,98314.09
2019-03-11T00:58:03.137Z,98312.83
2019-03-11T01:00:36.048Z,98316.58
2019-03-11T01:03:08.013Z,98315.05
2019-03-11T01:05:39.987Z,98315.14
2019-03-11T01:08:11.988Z,98313.18
2019-03-11T01:10:43.934Z,98323.95
2019-03-11T01:13:15.912Z,98321.67
2019-03-11T01:15:47.916Z,98319.22
2019-03-11T01:18:20.039Z,98320.55
2019-03-11T01:20:52.030Z,98322.95
2019-03-11T01:23:25.144Z,98318.16
2019-03-11T01:25:57.073Z,98317.77
2019-03-11T01:28:29.061Z,98318.64
2019-03-11T01:31:01.025Z,98308.97
2019-03-11T01:33:33.004Z,98300.09
2019-03-11T01:36:04.949Z,98305.70
2019-03-11T01:38:38.732Z,98298.64
2019-03-11T01:41:10.677Z,98293.34
2019-03-11T01:43:42.644Z,98295.27
2019-03-11T01:46:14.615Z,98294.23
2019-03-11T01:48:46.563Z,98287.79
2019-03-11T01:51:18.600Z,98286.53
2019-03-11T01:53:50.540Z,98280.80
2019-03-11T01:56:22.517Z,98273.81
2019-03-11T01:58:54.458Z,98270.50
2019-03-11T02:01:26.420Z,98264.08
2019-03-11T02:03:58.366Z,98259.92
2019-03-11T02:06:30.353Z,98256.85
2019-03-11T02:09:02.559Z,98253.34
2019-03-11T02:11:34.629Z,98256.91
2019-03-11T02:14:06.570Z,98254.38
2019-03-11T02:16:38.553Z,98250.08
2019-03-11T02:19:10.511Z,98250.58
2019-03-11T02:21:42.471Z,98251.83
2019-03-11T02:24:14.414Z,98247.05
2019-03-11T02:26:46.382Z,98243.74
2019-03-11T02:29:18.322Z,98236.02
2019-03-11T02:31:50.290Z,98236.12
2019-03-11T02:34:22.229Z,98233.24
2019-03-11T02:36:54.192Z,98220.91
2019-03-11T02:39:26.136Z,98221.16
2019-03-11T02:41:58.096Z,98211.93
2019-03-11T02:44:30.112Z,98203.41
2019-03-11T02:47:02.081Z,98199.07
2019-03-11T02:49:34.041Z,98200.37
2019-03-11T02:52:06.001Z,98196.31
2019-03-11T02:54:37.951Z,98188.95
2019-03-11T02:57:09.902Z,98184.23
2019-03-11T02:59:41.850Z,98182.05
2019-03-11T03:02:33.375Z,98175.30
2019-03-11T03:05:46.383Z,98170.09
2019-03-11T03:08:18.338Z,98159.45
2019-03-11T03:10:50.270Z,98156.52
2019-03-11T03:13:22.234Z,98144.14
2019-03-11T03:15:54.164Z,98138.12
2019-03-11T03:18:26.114Z,98135.59
2019-03-11T03:20:58.060Z,98134.05
2019-03-11T03:23:30.016Z,98129.95
2019-03-11T03:26:01.952Z,98132.13
2019-03-11T03:28:33.916Z,98123.33
2019-03-11T03:31:05.870Z,98121.36
2019-03-11T03:33:37.795Z,98112.49
2019-03-11T03:36:09.729Z,98109.12
2019-03-11T03:41:20.013Z,98100.23
2019-03-11T03:43:51.957Z,98096.42
2019-03-11T03:46:23.894Z,98101.27
2019-03-11T03:48:55.858Z,98100.80
2019-03-11T03:51:27.794Z,98096.99
2019-03-11T03:53:59.764Z,98083.58
2019-03-11T03:56:31.707Z,98077.05
2019-03-11T03:59:03.674Z,98081.47
2019-03-11T04:01:35.621Z,98081.53
2019-03-11T04:04:07.576Z,98084.89
2019-03-11T04:06:39.503Z,98084.66
2019-03-11T04:09:11.908Z,98092.58
2019-03-11T04:11:43.853Z,98090.41
2019-03-11T04:14:15.805Z,98092.35
2019-03-11T04:16:47.732Z,98107.20
2019-03-11T04:19:19.708Z,98111.42
2019-03-11T04:21:51.660Z,98107.87
2019-03-11T04:24:23.717Z,98115.28
2019-03-11T04:26:56.074Z,98121.95
2019-03-11T04:29:28.033Z,98112.48
2019-03-11T04:31:59.974Z,98102.75
2019-03-11T04:34:31.987Z,98099.97
2019-03-11T04:37:03.934Z,98101.78
2019-03-11T04:39:35.871Z,98089.61
2019-03-11T04:42:07.839Z,98094.57
2019-03-11T04:44:39.816Z,98081.91
2019-03-11T04:47:11.745Z,98082.54
2019-03-11T04:49:43.721Z,98069.17
2019-03-11T04:52:15.674Z,98071.59
2019-03-11T04:54:47.617Z,98057.34
2019-03-11T04:57:19.568Z,98052.50
2019-03-11T04:59:51.510Z,98048.31
2019-03-11T05:02:23.554Z,98031.27
2019-03-11T05:04:55.519Z,98021.52
2019-03-11T05:07:27.510Z,98017.77
2019-03-11T05:09:59.447Z,98002.89
2019-03-11T05:12:31.425Z,97999.22
2019-03-11T05:15:04.045Z,97986.34
2019-03-11T05:17:36.014Z,97974.34
2019-03-11T05:20:08.164Z,97963.97
2019-03-11T05:22:40.149Z,97975.61
2019-03-11T05:25:12.087Z,97966.48
2019-03-11T05:27:44.148Z,97957.37
2019-03-11T05:30:16.328Z,97957.78
2019-03-11T05:32:48.392Z,97960.09
2019-03-11T05:35:20.345Z,97970.54
2019-03-11T05:37:52.313Z,97965.73
2019-03-11T05:40:24.259Z,97974.91
2019-03-11T05:42:56.217Z,97982.98
2019-03-11T05:45:28.173Z,97964.52
2019-03-11T05:48:00.157Z,97964.75
2019-03-11T05:50:32.106Z,97981.00
2019-03-11T05:53:04.105Z,97966.25
2019-03-11T05:55:36.072Z,97983.98
2019-03-11T05:58:08.053Z,97993.59
2019-03-11T06:00:40.008Z,97983.86
2019-03-11T06:03:11.993Z,97988.45
2019-03-11T06:05:43.988Z,97991.87
2019-03-11T06:08:21.277Z,97992.73
2019-03-11T06:10:53.210Z,98000.98
2019-03-11T06:13:35.354Z,97997.41
2019-03-11T06:15:59.032Z,97992.73
2019-03-11T06:18:45.440Z,97996.70
2019-03-11T06:21:28.954Z,98001.48
2019-03-11T06:24:00.930Z,98007.72
2019-03-11T06:26:32.873Z,98014.90
2019-03-11T06:29:04.860Z,98015.25
2019-03-11T06:31:36.800Z,98015.64
2019-03-11T06:34:08.785Z,98022.01
2019-03-11T06:36:40.725Z,98027.61
2019-03-11T06:39:12.779Z,98044.88
2019-03-11T06:41:44.725Z,98039.05
2019-03-11T06:44:16.733Z,98045.38
2019-03-11T06:46:48.713Z,98052.33
2019-03-11T06:49:20.689Z,98060.73
2019-03-11T06:51:52.646Z,98068.70
2019-03-11T06:54:24.633Z,98062.30
2019-03-11T06:56:56.583Z,98055.37
2019-03-11T06:59:28.547Z,98071.45
2019-03-11T07:02:00.509Z,98076.77
2019-03-11T07:04:32.468Z,98071.50
2019-03-11T07:07:04.447Z,98085.47
2019-03-11T07:09:36.381Z,98077.64
2019-03-11T07:12:08.358Z,98078.75
2019-03-11T07:14:40.326Z,98079.35
2019-03-11T07:17:12.274Z,98084.17
2019-03-11T07:19:44.228Z,98090.88
2019-03-11T07:22:16.191Z,98085.38
2019-03-11T07:24:48.175Z,98079.73
2019-03-11T07:27:20.178Z,98091.81
2019-03-11T07:29:52.125Z,98129.53
2019-03-11T07:32:24.093Z,98178.25
2019-03-11T07:34:56.041Z,98171.52
2019-03-11T07:37:28.012Z,98175.20
2019-03-11T07:39:59.946Z,98174.67
2019-03-11T07:42:31.901Z,98176.19
2019-03-11T07:45:04.401Z,98156.42
2019-03-11T07:47:36.413Z,98164.13
2019-03-11T07:50:08.382Z,98177.66
2019-03-11T07:52:40.344Z,98196.00
2019-03-11T07:55:12.274Z,98218.75
2019-03-11T07:57:44.237Z,98238.91
2019-03-11T08:00:16.183Z,98238.28
2019-03-11T08:02:48.136Z,98246.49
2019-03-11T08:05:20.114Z,98259.23
2019-03-11T08:07:52.115Z,98259.66
2019-03-11T08:10:24.068Z,98254.58
2019-03-11T08:12:56.068Z,98239.97
2019-03-11T08:15:28.063Z,98251.41
2019-03-11T08:18:00.044Z,98259.23
2019-03-11T08:20:31.982Z,98250.02
2019-03-11T08:23:03.988Z,98247.97
2019-03-11T08:25:35.954Z,98259.01
2019-03-11T08:28:07.911Z,98263.89
2019-03-11T08:30:39.900Z,98257.91
2019-03-11T08:33:11.856Z,98255.32
2019-03-11T08:35:43.831Z,98256.67
2019-03-11T08:38:15.798Z,98264.84
2019-03-11T08:40:47.773Z,98264.50
2019-03-11T08:43:19.804Z,98259.95
2019-03-11T08:45:51.794Z,98277.70
2019-03-11T08:48:23.755Z,98282.12
2019-03-11T08:50:55.736Z,98280.55
2019-03-11T08:53:27.673Z,98283.05
2019-03-11T08:55:59.666Z,98282.07
2019-03-11T08:58:31.632Z,98277.80
2019-03-11T09:01:03.694Z,98281.66
2019-03-11T09:03:35.629Z,98277.57
2019-03-11T09:06:07.611Z,98286.31
2019-03-11T09:08:39.587Z,98291.89
2019-03-11T09:11:11.542Z,98282.92
2019-03-11T09:13:43.497Z,98291.38
2019-03-11T09:16:15.468Z,98293.64
2019-03-11T09:18:47.432Z,98279.41
2019-03-11T09:21:19.424Z,98285.47
2019-03-11T09:23:51.416Z,98283.34
2019-03-11T09:26:23.394Z,98288.36
2019-03-11T09:28:55.361Z,98270.06
2019-03-11T09:31:27.350Z,98278.80
2019-03-11T09:33:59.310Z,98277.19
2019-03-11T09:36:31.335Z,98273.13
2019-03-11T09:39:04.482Z,98268.06
2019-03-11T09:41:36.458Z,98268.69
2019-03-11T09:44:08.387Z,98266.57
2019-03-11T09:46:40.365Z,98262.53
2019-03-11T09:49:12.321Z,98264.94
2019-03-11T09:51:44.339Z,98260.88
2019-03-11T09:54:16.279Z,98259.48
2019-03-11T09:56:48.259Z,98261.75
2019-03-11T09:59:20.206Z,98253.36
2019-03-11T10:01:52.184Z,98251.98
2019-03-11T10:04:24.155Z,98253.97
2019-03-11T10:06:56.183Z,98255.87
2019-03-11T10:09:28.209Z,98259.53
2019-03-11T10:12:00.221Z,98252.39
2019-03-11T10:14:32.251Z,98253.81
2019-03-11T10:17:04.278Z,98255.32
2019-03-11T10:19:36.405Z,98245.47
2019-03-11T10:22:08.388Z,98245.64
2019-03-11T10:24:40.359Z,98238.97
2019-03-11T10:27:12.340Z,98233.41
2019-03-11T10:29:44.325Z,98227.73
2019-03-11T10:32:16.325Z,98234.38
2019-03-11T10:34:48.359Z,98231.40
2019-03-11T10:37:20.432Z,98220.74
2019-03-11T10:39:52.443Z,98231.43
2019-03-11T10:42:24.412Z,98242.23
2019-03-11T10:44:56.485Z,98242.91
2019-03-11T10:47:28.440Z,98250.48
2019-03-11T10:50:00.433Z,98242.52
2019-03-11T10:52:32.411Z,98258.27
2019-03-11T10:55:05.030Z,98264.08
2019-03-11T10:57:36.989Z,98276.47
2019-03-11T11:00:15.177Z,98270.30
2019-03-11T11:02:47.149Z,98271.08
2019-03-11T11:05:19.280Z,98277.05
2019-03-11T11:07:51.354Z,98269.34
2019-03-11T11:10:23.456Z,98274.19
2019-03-11T11:12:55.388Z,98273.95
2019-03-11T11:15:27.393Z,98276.89
2019-03-11T11:17:59.403Z,98280.83
2019-03-11T11:20:31.409Z,98270.75
2019-03-11T11:23:03.637Z,98272.54
2019-03-11T11:25:35.730Z,98266.97
2019-03-11T11:28:07.680Z,98252.48
2019-03-11T11:30:39.661Z,98272.20
2019-03-11T11:33:11.651Z,98280.48
2019-03-11T11:35:43.649Z,98290.17
2019-03-11T11:38:15.603Z,98299.77
2019-03-11T11:40:47.613Z,98302.08
2019-03-11T11:43:20.447Z,98312.55
2019-03-11T11:45:52.450Z,98320.62
2019-03-11T11:48:24.442Z,98318.39
2019-03-11T11:50:57.523Z,98314.45
2019-03-11T11:53:29.606Z,98325.79
2019-03-11T11:56:01.605Z,98333.75
2019-03-11T11:58:33.599Z,98318.92
2019-03-11T12:01:05.598Z,98317.84
2019-03-11T12:03:38.742Z,98326.44
2019-03-11T12:06:10.730Z,98333.29
2019-03-11T12:08:42.812Z,98330.77
2019-03-11T12:11:14.903Z,98325.66
2019-03-11T12:13:48.649Z,98330.63
2019-03-11T12:16:20.617Z,98324.20
2019-03-11T12:18:52.590Z,98330.53
2019-03-11T12:21:24.579Z,98327.95
2019-03-11T12:23:56.538Z,98328.31
2019-03-11T12:26:28.552Z,98323.62
2019-03-11T12:29:00.607Z,98322.28
2019-03-11T12:31:32.692Z,98324.41
2019-03-11T12:34:04.727Z,98330.83
2019-03-11T12:36:36.741Z,98323.77
2019-03-11T12:39:08.932Z,98316.25
2019-03-11T12:41:41.100Z,98307.49
2019-03-11T12:44:13.087Z,98307.70
2019-03-11T12:46:45.205Z,98320.89
2019-03-11T12:49:17.261Z,98337.58
2019-03-11T12:51:50.306Z,98342.47
2019-03-11T12:54:22.473Z,98344.77
2019-03-11T12:56:54.593Z,98337.22
2019-03-11T12:59:26.601Z,98332.16
2019-03-11T13:01:58.586Z,98337.48
2019-03-11T13:04:30.607Z,98334.14
2019-03-11T13:07:03.661Z,98334.22
2019-03-11T13:09:35.723Z,98326.06
2019-03-11T13:12:07.700Z,98326.47
2019-03-11T13:14:39.940Z,98322.14
2019-03-11T13:17:11.889Z,98328.12
2019-03-11T13:19:43.901Z,98345.41
2019-03-11T13:22:17.795Z,98354.52
2019-03-11T13:24:49.922Z,98345.30
2019-03-11T13:27:21.902Z,98340.95
2019-03-11T13:29:53.893Z,98322.20
2019-03-11T13:32:27.242Z,98328.97
2019-03-11T13:34:59.421Z,98332.85
2019-03-11T13:37:31.407Z,98337.80
2019-03-11T13:40:04.379Z,98354.85
2019-03-11T13:42:36.530Z,98362.22
2019-03-11T13:45:08.681Z,98406.38
2019-03-11T13:47:40.764Z,98398.11
2019-03-11T13:50:13.284Z,98397.09
2019-03-11T13:52:46.641Z,98403.94
2019-03-11T13:55:18.597Z,98413.30
2019-03-11T13:57:51.070Z,98404.81
2019-03-11T14:00:24.168Z,98408.14
2019-03-11T14:02:56.140Z,98410.13
2019-03-11T14:05:28.147Z,98396.55
2019-03-11T14:08:00.131Z,98399.09
2019-03-11T14:10:32.155Z,98395.33
2019-03-11T14:13:04.099Z,98393.81
2019-03-11T14:15:36.079Z,98401.15
2019-03-11T14:18:09.174Z,98401.37
2019-03-11T14:20:42.320Z,98396.22
2019-03-11T14:23:14.283Z,98402.63
2019-03-11T14:25:46.285Z,98402.55
2019-03-11T14:28:20.034Z,98396.96
2019-03-11T14:30:52.587Z,98406.15
2019-03-11T14:33:24.748Z,98414.06
2019-03-11T14:35:56.985Z,98419.03
2019-03-11T14:38:28.942Z,98427.28
2019-03-11T14:41:00.953Z,98433.83
2019-03-11T14:43:32.933Z,98427.41
2019-03-11T14:46:04.909Z,98436.69
2019-03-11T14:48:36.864Z,98434.88
2019-03-11T14:51:08.901Z,98444.19
2019-03-11T14:53:40.881Z,98448.84
2019-03-11T14:56:12.870Z,98456.98
2019-03-11T14:58:44.861Z,98460.30
2019-03-11T15:01:17.097Z,98458.88
2019-03-11T15:03:49.059Z,98457.23
2019-03-11T15:06:22.993Z,98458.23
2019-03-11T15:08:55.004Z,98457.61
2019-03-11T15:11:27.048Z,98452.05
2019-03-11T15:13:59.123Z,98458.58
2019-03-11T15:16:31.073Z,98462.67
2019-03-11T15:19:03.809Z,98465.36
2019-03-11T15:21:35.874Z,98469.03
2019-03-11T15:24:07.996Z,98462.29
2019-03-11T15:26:39.960Z,98456.56
2019-03-11T15:29:12.007Z,98469.61
2019-03-11T15:31:44.028Z,98475.38
2019-03-11T15:34:17.823Z,98465.55
2019-03-11T15:36:49.853Z,98461.73
2019-03-11T15:39:21.919Z,98457.94
2019-03-11T15:41:53.998Z,98449.80
2019-03-11T15:44:27.474Z,98446.87
2019-03-11T15:46:59.737Z,98452.06
2019-03-11T15:49:31.788Z,98443.89
2019-03-11T15:52:03.885Z,98456.59
2019-03-11T15:54:35.908Z,98460.56
2019-03-11T15:57:07.905Z,98460.80
2019-03-11T15:59:39.936Z,98457.78
2019-03-11T16:02:11.930Z,98463.63
2019-03-11T16:04:43.917Z,98480.50
2019-03-11T16:07:15.913Z,98479.63
2019-03-11T16:09:47.968Z,98486.36
2019-03-11T16:12:19.928Z,98500.74
2019-03-11T16:14:51.949Z,98526.80
2019-03-11T16:17:23.994Z,98549.47
2019-03-11T16:19:55.985Z,98558.14
2019-03-11T16:22:27.946Z,98548.66
2019-03-11T16:24:59.954Z,98539.63
2019-03-11T16:27:32.001Z,98533.61
2019-03-11T16:30:06.421Z,98542.42
2019-03-11T16:32:38.438Z,98539.41
2019-03-11T16:35:10.545Z,98538.64
2019-03-11T16:37:42.544Z,98543.94
2019-03-11T16:40:14.678Z,98544.56
2019-03-11T16:42:46.675Z,98547.83
2019-03-11T16:45:59.507Z,98535.50
2019-03-11T16:48:31.500Z,98543.17
2019-03-11T16:51:03.543Z,98554.54
2019-03-11T16:53:35.548Z,98557.54
2019-03-11T16:56:07.613Z,98557.23
2019-03-11T16:58:39.656Z,98559.87
2019-03-11T17:01:12.241Z,98565.24
2019-03-11T17:03:44.229Z,98563.79
2019-03-11T17:06:16.232Z,98563.80
2019-03-11T17:08:48.227Z,98571.02
2019-03-11T17:11:20.190Z,98579.39
2019-03-11T17:13:52.204Z,98576.12
2019-03-11T17:16:24.221Z,98581.19
2019-03-11T17:18:56.232Z,98583.92
2019-03-11T17:21:28.241Z,98593.30
2019-03-11T17:24:00.245Z,98590.26
2019-03-11T17:26:32.254Z,98596.83
2019-03-11T17:29:04.258Z,98604.16
2019-03-11T17:31:36.227Z,98610.50
2019-03-11T17:34:08.286Z,98610.23
2019-03-11T17:36:40.283Z,98617.52
2019-03-11T17:39:12.291Z,98621.71
2019-03-11T17:41:44.297Z,98613.25
2019-03-11T17:44:16.286Z,98616.26
2019-03-11T17:46:48.311Z,98618.83
2019-03-11T17:49:20.272Z,98619.48
2019-03-11T17:51:52.327Z,98627.83
2019-03-11T17:54:24.300Z,98626.12
2019-03-11T17:56:56.320Z,98630.43
2019-03-11T17:59:28.401Z,98633.12
2019-03-11T18:02:00.507Z,98630.05
2019-03-11T18:04:32.511Z,98638.08
2019-03-11T18:07:04.556Z,98647.25
2019-03-11T18:09:36.614Z,98646.52
2019-03-11T18:12:08.686Z,98651.55
2019-03-11T18:14:40.851Z,98652.81
2019-03-11T18:17:12.880Z,98664.59
2019-03-11T18:19:44.957Z,98662.55
2019-03-11T18:22:17.038Z,98665.71
2019-03-11T18:24:49.063Z,98671.27
2019-03-11T18:27:21.111Z,98669.06
2019-03-11T18:29:53.117Z,98668.86
2019-03-11T18:32:25.128Z,98673.66
2019-03-11T18:34:57.143Z,98665.78
2019-03-11T18:37:29.127Z,98667.98
2019-03-11T18:40:01.552Z,98666.98
2019-03-11T18:42:33.563Z,98670.56
2019-03-11T18:45:05.736Z,98677.28
2019-03-11T18:47:37.793Z,98678.01
2019-03-11T18:50:10.559Z,98676.56
2019-03-11T18:52:42.668Z,98679.15
2019-03-11T18:55:15.638Z,98684.95
2019-03-11T18:57:47.731Z,98679.27
2019-03-11T19:00:20.119Z,98690.29
2019-03-11T19:02:52.242Z,98689.52
2019-03-11T19:05:24.402Z,98693.36
2019-03-11T19:07:56.548Z,98692.69
2019-03-11T19:10:28.677Z,98705.36
2019-03-11T19:13:00.693Z,98712.43
2019-03-11T19:15:32.812Z,98711.70
2019-03-11T19:18:04.778Z,98711.88
2019-03-11T19:20:36.883Z,98712.64
2019-03-11T19:23:08.882Z,98709.84
2019-03-11T19:25:41.741Z,98714.13
2019-03-11T19:28:13.972Z,98715.84
2019-03-11T19:30:46.282Z,98714.42
2019-03-11T19:33:18.299Z,98722.51
2019-03-11T19:35:50.440Z,98719.42
2019-03-11T19:38:22.671Z,98721.24
2019-03-11T19:40:54.800Z,98715.50
2019-03-11T19:43:29.283Z,98729.84
2019-03-11T19:46:00.772Z,98727.03
2019-03-11T19:48:32.937Z,98732.77
2019-03-11T19:51:04.928Z,98738.05
2019-03-11T19:53:37.027Z,98735.23
2019-03-11T19:56:09.050Z,98744.98
2019-03-11T19:58:41.343Z,98741.58
2019-03-11T20:01:13.381Z,98748.11
2019-03-11T20:03:45.553Z,98748.48
2019-03-11T20:06:17.548Z,98744.86
2019-03-11T20:08:49.687Z,98743.41
2019-03-11T20:11:21.786Z,98740.18
2019-03-11T20:13:53.847Z,98735.49
2019-03-11T20:16:25.877Z,98742.33
2019-03-11T20:18:57.971Z,98744.41
2019-03-11T20:21:30.000Z,98749.39
2019-03-11T20:24:02.100Z,98760.87
2019-03-11T20:26:34.172Z,98758.72
2019-03-11T20:29:06.520Z,98759.80
2019-03-11T20:31:38.544Z,98770.56
2019-03-11T20:34:10.643Z,98771.56
2019-03-11T20:36:42.667Z,98776.56
2019-03-11T20:39:14.730Z,98781.69
2019-03-11T20:41:46.857Z,98785.00
2019-03-11T20:44:18.949Z,98785.44
2019-03-11T20:46:51.080Z,98800.33
2019-03-11T20:49:23.199Z,98803.92
2019-03-11T20:51:55.250Z,98797.84
2019-03-11T20:54:27.226Z,98800.88
2019-03-11T20:57:01.035Z,98794.47
2019-03-11T20:59:33.387Z,98798.06
2019-03-11T21:02:05.645Z,98793.42
2019-03-11T21:04:37.741Z,98802.42
2019-03-11T21:07:09.793Z,98808.48
2019-03-11T21:09:41.889Z,98803.84
2019-03-11T21:12:13.994Z,98801.88
2019-03-11T21:14:46.137Z,98810.14
2019-03-11T21:17:25.702Z,98813.45
2019-03-11T21:19:52.181Z,98814.66
2019-03-11T21:22:24.408Z,98826.95
2019-03-11T21:24:59.852Z,98827.66
2019-03-11T21:27:30.415Z,98833.29
2019-03-11T21:30:02.473Z,98834.00
2019-03-11T21:32:34.683Z,98834.50
2019-03-11T21:35:07.102Z,98835.92
2019-03-11T21:37:39.332Z,98843.16
2019-03-11T21:40:13.049Z,98846.30
2019-03-11T21:42:45.693Z,98846.53
2019-03-11T21:45:18.585Z,98847.41
2019-03-11T21:47:51.279Z,98840.08
2019-03-11T21:50:23.457Z,98844.60
2019-03-11T21:52:55.494Z,98854.03
2019-03-11T21:55:27.944Z,98846.42
2019-03-11T21:58:12.454Z,98858.67
2019-03-11T22:00:54.131Z,98849.23
2019-03-11T22:03:26.126Z,98856.09
2019-03-11T22:05:58.168Z,98845.20
2019-03-11T22:08:30.392Z,98860.15
2019-03-11T22:11:02.380Z,98851.57
2019-03-11T22:13:34.476Z,98841.59
2019-03-11T22:16:06.450Z,98850.73
2019-03-11T22:18:38.581Z,98846.05
2019-03-11T22:21:12.495Z,98851.06
2019-03-11T22:23:44.497Z,98849.98
2019-03-11T22:26:16.466Z,98860.70
2019-03-11T22:28:49.584Z,98853.41
2019-03-11T22:31:21.590Z,98851.42
2019-03-11T22:33:53.731Z,98853.01
2019-03-11T22:36:25.726Z,98862.33
2019-03-11T22:38:57.702Z,98851.83
2019-03-11T22:41:29.705Z,98858.84
2019-03-11T22:44:01.810Z,98860.34
2019-03-11T22:46:33.863Z,98861.06
2019-03-11T22:49:05.854Z,98862.38
2019-03-11T22:51:37.867Z,98866.58
2019-03-11T22:57:09.418Z,98865.19
2019-03-11T22:59:41.447Z,98868.41
2019-03-11T23:02:54.230Z,98869.02
2019-03-11T23:05:26.328Z,98877.61
2019-03-11T23:07:58.392Z,98872.66
2019-03-11T23:10:30.491Z,98867.91
2019-03-11T23:13:02.447Z,98874.69
2019-03-11T23:15:34.426Z,98877.56
2019-03-11T23:18:06.393Z,98875.41
2019-03-11T23:20:38.482Z,98880.14
2019-03-11T23:23:10.545Z,98879.73
2019-03-11T23:25:42.516Z,98884.41
2019-03-11T23:28:14.651Z,98889.43
2019-03-11T23:30:46.744Z,98886.77
2019-03-11T23:33:18.777Z,98882.14
2019-03-11T23:35:51.019Z,98886.83
2019-03-11T23:38:22.955Z,98894.16
2019-03-11T23:40:54.954Z,98905.80
2019-03-11T23:43:27.014Z,98901.72
2019-03-11T23:45:58.980Z,98902.39
2019-03-11T23:48:30.941Z,98912.55
2019-03-11T23:53:41.558Z,98912.21
2019-03-11T23:56:13.529Z,98920.81
2019-03-11T23:58:45.486Z,98926.98
